sensor_id;sensor_type;location;lat;lon;timestamp;P1;durP1;ratioP1;P2;durP2;ratioP2
15408;SDS011;7803;48.130;13.788;2024-01-10T01:10:56;12.77;;;10.85;;
15408;SDS011;7803;48.130;13.788;2024-01-10T01:14:02;12.52;;;10.30;;
15408;SDS011;7803;48.130;13.788;2024-01-10T01:17:06;13.00;;;10.68;;
15408;SDS011;7803;48.130;13.788;2024-01-10T01:20:10;14.48;;;11.00;;
15408;SDS011;7803;48.130;13.788;2024-01-10T01:23:18;13.52;;;10.88;;
15408;SDS011;7803;48.130;13.788;2024-01-10T01:26:21;12.80;;;10.55;;
15408;SDS011;7803;48.130;13.788;2024-01-10T01:29:24;13.15;;;10.63;;
15408;SDS011;7803;48.130;13.788;2024-01-10T01:32:26;15.10;;;11.55;;
15408;SDS011;7803;48.130;13.788;2024-01-10T01:35:28;13.23;;;10.30;;
15408;SDS011;7803;48.130;13.788;2024-01-10T01:42:06;12.63;;;10.75;;
15408;SDS011;7803;48.130;13.788;2024-01-10T01:45:09;12.77;;;9.90;;
15408;SDS011;7803;48.130;13.788;2024-01-10T01:48:16;11.15;;;9.65;;
15408;SDS011;7803;48.130;13.788;2024-01-10T01:51:20;11.95;;;10.07;;
15408;SDS011;7803;48.130;13.788;2024-01-10T01:58:26;10.98;;;9.63;;
15408;SDS011;7803;48.130;13.788;2024-01-10T02:01:42;11.25;;;9.27;;
15408;SDS011;7803;48.130;13.788;2024-01-10T02:04:45;12.02;;;9.55;;
15408;SDS011;7803;48.130;13.788;2024-01-10T02:07:50;11.38;;;9.50;;
15408;SDS011;7803;48.130;13.788;2024-01-10T02:10:52;11.23;;;9.73;;
15408;SDS011;7803;48.130;13.788;2024-01-10T02:21:27;11.00;;;9.48;;
15408;SDS011;7803;48.130;13.788;2024-01-10T02:24:38;11.82;;;9.85;;
15408;SDS011;7803;48.130;13.788;2024-01-10T02:27:41;10.80;;;9.27;;
15408;SDS011;7803;48.130;13.788;2024-01-10T02:30:43;10.30;;;8.93;;
15408;SDS011;7803;48.130;13.788;2024-01-10T02:33:47;12.07;;;9.43;;
15408;SDS011;7803;48.130;13.788;2024-01-10T02:36:53;11.50;;;8.85;;
15408;SDS011;7803;48.130;13.788;2024-01-10T02:39:57;10.25;;;8.80;;
15408;SDS011;7803;48.130;13.788;2024-01-10T02:46:18;10.23;;;8.88;;
15408;SDS011;7803;48.130;13.788;2024-01-10T02:49:34;10.73;;;8.63;;
15408;SDS011;7803;48.130;13.788;2024-01-10T02:52:36;10.60;;;8.98;;
15408;SDS011;7803;48.130;13.788;2024-01-10T02:55:39;10.20;;;8.77;;
15408;SDS011;7803;48.130;13.788;2024-01-10T02:59:06;9.45;;;8.15;;
15408;SDS011;7803;48.130;13.788;2024-01-10T03:02:08;10.68;;;8.93;;
15408;SDS011;7803;48.130;13.788;2024-01-10T03:05:13;11.95;;;8.82;;
15408;SDS011;7803;48.130;13.788;2024-01-10T03:08:15;9.45;;;8.45;;
15408;SDS011;7803;48.130;13.788;2024-01-10T03:11:17;10.27;;;8.35;;
15408;SDS011;7803;48.130;13.788;2024-01-10T03:18:06;9.00;;;8.10;;
15408;SDS011;7803;48.130;13.788;2024-01-10T03:21:08;8.95;;;8.02;;
15408;SDS011;7803;48.130;13.788;2024-01-10T03:24:10;9.50;;;8.05;;
15408;SDS011;7803;48.130;13.788;2024-01-10T03:27:13;10.75;;;8.75;;
15408;SDS011;7803;48.130;13.788;2024-01-10T03:30:29;10.23;;;9.00;;
15408;SDS011;7803;48.130;13.788;2024-01-10T03:33:33;11.48;;;8.90;;
15408;SDS011;7803;48.130;13.788;2024-01-10T03:36:49;9.43;;;8.32;;
15408;SDS011;7803;48.130;13.788;2024-01-10T03:40:06;11.43;;;9.43;;
15408;SDS011;7803;48.130;13.788;2024-01-10T03:43:23;11.00;;;8.73;;
15408;SDS011;7803;48.130;13.788;2024-01-10T03:46:25;10.18;;;8.27;;
15408;SDS011;7803;48.130;13.788;2024-01-10T03:53:17;9.85;;;8.40;;
15408;SDS011;7803;48.130;13.788;2024-01-10T03:56:19;10.10;;;8.45;;
15408;SDS011;7803;48.130;13.788;2024-01-10T03:59:35;10.65;;;8.60;;
15408;SDS011;7803;48.130;13.788;2024-01-10T04:02:51;10.75;;;8.75;;
15408;SDS011;7803;48.130;13.788;2024-01-10T04:05:54;9.55;;;8.32;;
15408;SDS011;7803;48.130;13.788;2024-01-10T04:09:02;9.63;;;8.13;;
15408;SDS011;7803;48.130;13.788;2024-01-10T04:12:04;9.85;;;8.35;;
15408;SDS011;7803;48.130;13.788;2024-01-10T04:15:07;10.57;;;8.25;;
15408;SDS011;7803;48.130;13.788;2024-01-10T04:18:23;10.20;;;8.30;;
15408;SDS011;7803;48.130;13.788;2024-01-10T04:21:27;10.60;;;8.50;;
15408;SDS011;7803;48.130;13.788;2024-01-10T04:24:44;9.82;;;8.20;;
15408;SDS011;7803;48.130;13.788;2024-01-10T04:27:46;12.18;;;8.20;;
15408;SDS011;7803;48.130;13.788;2024-01-10T04:30:50;10.10;;;7.93;;
15408;SDS011;7803;48.130;13.788;2024-01-10T04:33:52;10.98;;;8.05;;
15408;SDS011;7803;48.130;13.788;2024-01-10T04:37:11;10.07;;;7.60;;
15408;SDS011;7803;48.130;13.788;2024-01-10T04:40:34;10.68;;;8.02;;
15408;SDS011;7803;48.130;13.788;2024-01-10T04:43:36;9.77;;;8.25;;
15408;SDS011;7803;48.130;13.788;2024-01-10T04:46:38;9.45;;;8.02;;
15408;SDS011;7803;48.130;13.788;2024-01-10T04:49:55;9.13;;;7.60;;
15408;SDS011;7803;48.130;13.788;2024-01-10T04:52:57;10.88;;;7.70;;
15408;SDS011;7803;48.130;13.788;2024-01-10T05:00:00;8.82;;;7.40;;
15408;SDS011;7803;48.130;13.788;2024-01-10T05:03:03;8.23;;;7.20;;
15408;SDS011;7803;48.130;13.788;2024-01-10T05:06:20;9.50;;;7.50;;
15408;SDS011;7803;48.130;13.788;2024-01-10T05:09:22;9.65;;;8.02;;
15408;SDS011;7803;48.130;13.788;2024-01-10T05:12:24;11.13;;;7.97;;
15408;SDS011;7803;48.130;13.788;2024-01-10T05:15:27;10.85;;;7.57;;
15408;SDS011;7803;48.130;13.788;2024-01-10T05:18:43;9.82;;;7.90;;
15408;SDS011;7803;48.130;13.788;2024-01-10T05:21:59;8.50;;;7.53;;
15408;SDS011;7803;48.130;13.788;2024-01-10T05:25:02;9.13;;;7.65;;
15408;SDS011;7803;48.130;13.788;2024-01-10T05:28:05;9.32;;;7.40;;
15408;SDS011;7803;48.130;13.788;2024-01-10T05:31:23;9.48;;;7.70;;
15408;SDS011;7803;48.130;13.788;2024-01-10T05:34:25;8.48;;;7.25;;
15408;SDS011;7803;48.130;13.788;2024-01-10T05:37:28;9.50;;;7.72;;
15408;SDS011;7803;48.130;13.788;2024-01-10T05:40:44;8.48;;;7.30;;
15408;SDS011;7803;48.130;13.788;2024-01-10T05:44:00;8.60;;;7.30;;
15408;SDS011;7803;48.130;13.788;2024-01-10T05:50:52;9.27;;;7.32;;
15408;SDS011;7803;48.130;13.788;2024-01-10T05:53:54;9.25;;;7.72;;
15408;SDS011;7803;48.130;13.788;2024-01-10T05:57:09;10.02;;;7.70;;
15408;SDS011;7803;48.130;13.788;2024-01-10T06:00:12;7.80;;;7.00;;
15408;SDS011;7803;48.130;13.788;2024-01-10T06:03:29;8.77;;;6.97;;
15408;SDS011;7803;48.130;13.788;2024-01-10T06:06:32;9.10;;;7.22;;
15408;SDS011;7803;48.130;13.788;2024-01-10T06:09:35;9.02;;;7.30;;
15408;SDS011;7803;48.130;13.788;2024-01-10T06:12:50;8.40;;;7.20;;
15408;SDS011;7803;48.130;13.788;2024-01-10T06:15:52;8.20;;;7.32;;
15408;SDS011;7803;48.130;13.788;2024-01-10T06:18:54;9.18;;;6.97;;
15408;SDS011;7803;48.130;13.788;2024-01-10T06:22:06;9.15;;;7.40;;
15408;SDS011;7803;48.130;13.788;2024-01-10T06:25:08;8.55;;;7.15;;
15408;SDS011;7803;48.130;13.788;2024-01-10T06:28:10;9.80;;;7.40;;
15408;SDS011;7803;48.130;13.788;2024-01-10T06:31:26;9.27;;;8.00;;
15408;SDS011;7803;48.130;13.788;2024-01-10T06:34:42;8.63;;;7.53;;
15408;SDS011;7803;48.130;13.788;2024-01-10T06:37:47;7.85;;;6.95;;
15408;SDS011;7803;48.130;13.788;2024-01-10T06:40:49;8.70;;;7.20;;
15408;SDS011;7803;48.130;13.788;2024-01-10T06:43:52;8.07;;;6.97;;
15408;SDS011;7803;48.130;13.788;2024-01-10T06:47:08;8.40;;;7.45;;
15408;SDS011;7803;48.130;13.788;2024-01-10T06:50:10;8.50;;;7.22;;
15408;SDS011;7803;48.130;13.788;2024-01-10T07:00:17;9.02;;;6.40;;
15408;SDS011;7803;48.130;13.788;2024-01-10T07:03:21;9.18;;;7.50;;
15408;SDS011;7803;48.130;13.788;2024-01-10T07:06:23;8.20;;;7.18;;
15408;SDS011;7803;48.130;13.788;2024-01-10T07:09:25;8.50;;;7.20;;
15408;SDS011;7803;48.130;13.788;2024-01-10T07:12:29;7.78;;;6.97;;
15408;SDS011;7803;48.130;13.788;2024-01-10T07:15:31;8.63;;;6.95;;
15408;SDS011;7803;48.130;13.788;2024-01-10T07:18:33;8.25;;;7.03;;
15408;SDS011;7803;48.130;13.788;2024-01-10T07:21:36;8.45;;;6.63;;
15408;SDS011;7803;48.130;13.788;2024-01-10T07:24:38;8.52;;;6.75;;
15408;SDS011;7803;48.130;13.788;2024-01-10T07:31:41;9.60;;;7.43;;
15408;SDS011;7803;48.130;13.788;2024-01-10T07:34:43;9.38;;;7.50;;
15408;SDS011;7803;48.130;13.788;2024-01-10T07:37:59;9.75;;;7.50;;
15408;SDS011;7803;48.130;13.788;2024-01-10T07:41:15;9.32;;;7.97;;
15408;SDS011;7803;48.130;13.788;2024-01-10T07:44:30;11.07;;;7.90;;
15408;SDS011;7803;48.130;13.788;2024-01-10T07:47:34;9.23;;;7.35;;
15408;SDS011;7803;48.130;13.788;2024-01-10T07:50:38;8.10;;;7.03;;
15408;SDS011;7803;48.130;13.788;2024-01-10T07:53:54;9.70;;;7.90;;
15408;SDS011;7803;48.130;13.788;2024-01-10T07:57:10;10.05;;;8.02;;
15408;SDS011;7803;48.130;13.788;2024-01-10T08:00:26;9.50;;;7.82;;
15408;SDS011;7803;48.130;13.788;2024-01-10T08:03:40;10.57;;;7.88;;
15408;SDS011;7803;48.130;13.788;2024-01-10T08:06:42;9.63;;;7.85;;
15408;SDS011;7803;48.130;13.788;2024-01-10T08:09:44;10.20;;;8.07;;
15408;SDS011;7803;48.130;13.788;2024-01-10T08:13:00;10.27;;;8.10;;
15408;SDS011;7803;48.130;13.788;2024-01-10T08:16:16;9.63;;;7.97;;
15408;SDS011;7803;48.130;13.788;2024-01-10T08:19:21;10.45;;;8.15;;
15408;SDS011;7803;48.130;13.788;2024-01-10T08:22:37;10.77;;;7.95;;
15408;SDS011;7803;48.130;13.788;2024-01-10T08:25:39;9.07;;;7.75;;
15408;SDS011;7803;48.130;13.788;2024-01-10T08:28:55;9.57;;;7.70;;
15408;SDS011;7803;48.130;13.788;2024-01-10T08:31:57;9.68;;;7.90;;
15408;SDS011;7803;48.130;13.788;2024-01-10T08:38:46;9.50;;;7.97;;
15408;SDS011;7803;48.130;13.788;2024-01-10T08:42:02;10.52;;;7.90;;
15408;SDS011;7803;48.130;13.788;2024-01-10T08:45:18;9.27;;;8.20;;
15408;SDS011;7803;48.130;13.788;2024-01-10T08:48:35;9.43;;;8.07;;
15408;SDS011;7803;48.130;13.788;2024-01-10T08:51:51;9.68;;;8.38;;
15408;SDS011;7803;48.130;13.788;2024-01-10T08:55:08;10.93;;;7.95;;
15408;SDS011;7803;48.130;13.788;2024-01-10T08:58:10;9.43;;;8.13;;
15408;SDS011;7803;48.130;13.788;2024-01-10T09:01:26;9.65;;;8.20;;
15408;SDS011;7803;48.130;13.788;2024-01-10T09:04:43;9.55;;;8.23;;
15408;SDS011;7803;48.130;13.788;2024-01-10T09:07:45;10.13;;;8.32;;
15408;SDS011;7803;48.130;13.788;2024-01-10T09:14:20;9.75;;;8.38;;
15408;SDS011;7803;48.130;13.788;2024-01-10T09:17:36;11.43;;;8.13;;
15408;SDS011;7803;48.130;13.788;2024-01-10T09:20:52;9.27;;;7.93;;
15408;SDS011;7803;48.130;13.788;2024-01-10T09:24:08;9.85;;;8.50;;
15408;SDS011;7803;48.130;13.788;2024-01-10T09:27:12;9.23;;;8.25;;
15408;SDS011;7803;48.130;13.788;2024-01-10T09:30:14;10.70;;;8.57;;
15408;SDS011;7803;48.130;13.788;2024-01-10T09:33:30;9.02;;;8.10;;
15408;SDS011;7803;48.130;13.788;2024-01-10T09:36:46;9.75;;;8.15;;
15408;SDS011;7803;48.130;13.788;2024-01-10T09:39:48;9.68;;;8.13;;
15408;SDS011;7803;48.130;13.788;2024-01-10T09:42:52;9.85;;;8.20;;
15408;SDS011;7803;48.130;13.788;2024-01-10T09:46:08;10.15;;;8.35;;
15408;SDS011;7803;48.130;13.788;2024-01-10T09:49:24;9.25;;;7.95;;
15408;SDS011;7803;48.130;13.788;2024-01-10T09:52:41;11.75;;;8.82;;
15408;SDS011;7803;48.130;13.788;2024-01-10T09:55:48;9.35;;;7.97;;
15408;SDS011;7803;48.130;13.788;2024-01-10T09:59:05;10.13;;;8.73;;
15408;SDS011;7803;48.130;13.788;2024-01-10T10:02:23;10.25;;;8.45;;
15408;SDS011;7803;48.130;13.788;2024-01-10T10:05:40;9.23;;;8.25;;
15408;SDS011;7803;48.130;13.788;2024-01-10T10:08:56;9.77;;;8.15;;
15408;SDS011;7803;48.130;13.788;2024-01-10T10:11:58;9.38;;;8.32;;
15408;SDS011;7803;48.130;13.788;2024-01-10T10:15:25;11.05;;;8.77;;
15408;SDS011;7803;48.130;13.788;2024-01-10T10:18:28;10.15;;;8.45;;
15408;SDS011;7803;48.130;13.788;2024-01-10T10:21:45;11.48;;;8.65;;
15408;SDS011;7803;48.130;13.788;2024-01-10T10:24:51;10.75;;;8.27;;
15408;SDS011;7803;48.130;13.788;2024-01-10T10:28:07;9.07;;;8.05;;
15408;SDS011;7803;48.130;13.788;2024-01-10T10:31:25;11.65;;;8.65;;
15408;SDS011;7803;48.130;13.788;2024-01-10T10:34:30;8.98;;;8.05;;
15408;SDS011;7803;48.130;13.788;2024-01-10T10:37:33;10.43;;;8.55;;
15408;SDS011;7803;48.130;13.788;2024-01-10T10:40:36;9.80;;;8.55;;
15408;SDS011;7803;48.130;13.788;2024-01-10T10:43:38;10.50;;;8.65;;
15408;SDS011;7803;48.130;13.788;2024-01-10T10:57:50;9.63;;;8.50;;
15408;SDS011;7803;48.130;13.788;2024-01-10T11:00:53;9.80;;;8.50;;
15408;SDS011;7803;48.130;13.788;2024-01-10T11:04:00;9.77;;;8.15;;
15408;SDS011;7803;48.130;13.788;2024-01-10T11:07:16;10.25;;;8.77;;
15408;SDS011;7803;48.130;13.788;2024-01-10T11:10:33;10.98;;;8.90;;
15408;SDS011;7803;48.130;13.788;2024-01-10T11:14:00;10.20;;;8.60;;
15408;SDS011;7803;48.130;13.788;2024-01-10T11:17:26;9.93;;;8.60;;
15408;SDS011;7803;48.130;13.788;2024-01-10T11:20:48;11.18;;;8.55;;
15408;SDS011;7803;48.130;13.788;2024-01-10T11:23:59;11.02;;;9.23;;
15408;SDS011;7803;48.130;13.788;2024-01-10T11:27:07;9.57;;;8.45;;
15408;SDS011;7803;48.130;13.788;2024-01-10T11:30:14;9.98;;;8.73;;
15408;SDS011;7803;48.130;13.788;2024-01-10T11:33:35;10.35;;;8.50;;
15408;SDS011;7803;48.130;13.788;2024-01-10T11:36:39;11.60;;;8.93;;
15408;SDS011;7803;48.130;13.788;2024-01-10T11:40:03;11.90;;;9.43;;
15408;SDS011;7803;48.130;13.788;2024-01-10T11:43:06;9.52;;;8.52;;
15408;SDS011;7803;48.130;13.788;2024-01-10T11:50:15;10.80;;;9.00;;
15408;SDS011;7803;48.130;13.788;2024-01-10T11:53:37;9.73;;;8.60;;
15408;SDS011;7803;48.130;13.788;2024-01-10T11:56:41;11.10;;;8.98;;
15408;SDS011;7803;48.130;13.788;2024-01-10T11:59:57;12.05;;;9.48;;
15408;SDS011;7803;48.130;13.788;2024-01-10T12:03:00;11.15;;;9.07;;
15408;SDS011;7803;48.130;13.788;2024-01-10T12:06:09;9.90;;;8.85;;
15408;SDS011;7803;48.130;13.788;2024-01-10T12:09:12;9.75;;;8.75;;
15408;SDS011;7803;48.130;13.788;2024-01-10T12:12:15;10.77;;;9.25;;
15408;SDS011;7803;48.130;13.788;2024-01-10T12:15:17;11.00;;;8.77;;
15408;SDS011;7803;48.130;13.788;2024-01-10T12:18:19;12.70;;;9.73;;
15408;SDS011;7803;48.130;13.788;2024-01-10T12:21:24;10.98;;;8.85;;
15408;SDS011;7803;48.130;13.788;2024-01-10T12:24:27;10.63;;;9.02;;
15408;SDS011;7803;48.130;13.788;2024-01-10T12:27:42;11.07;;;8.90;;
15408;SDS011;7803;48.130;13.788;2024-01-10T12:30:58;10.85;;;8.82;;
15408;SDS011;7803;48.130;13.788;2024-01-10T12:34:01;9.98;;;8.75;;
15408;SDS011;7803;48.130;13.788;2024-01-10T12:37:05;11.07;;;8.98;;
15408;SDS011;7803;48.130;13.788;2024-01-10T12:40:08;10.55;;;8.77;;
15408;SDS011;7803;48.130;13.788;2024-01-10T12:43:24;11.88;;;8.90;;
15408;SDS011;7803;48.130;13.788;2024-01-10T12:46:26;11.02;;;9.07;;
15408;SDS011;7803;48.130;13.788;2024-01-10T12:49:29;10.27;;;9.18;;
15408;SDS011;7803;48.130;13.788;2024-01-10T12:52:47;10.20;;;8.38;;
15408;SDS011;7803;48.130;13.788;2024-01-10T12:55:49;11.10;;;8.77;;
15408;SDS011;7803;48.130;13.788;2024-01-10T12:58:51;11.48;;;9.10;;
15408;SDS011;7803;48.130;13.788;2024-01-10T13:01:54;11.30;;;9.00;;
15408;SDS011;7803;48.130;13.788;2024-01-10T13:04:57;10.13;;;8.57;;
15408;SDS011;7803;48.130;13.788;2024-01-10T13:08:00;9.98;;;8.57;;
15408;SDS011;7803;48.130;13.788;2024-01-10T13:11:05;10.32;;;8.77;;
15408;SDS011;7803;48.130;13.788;2024-01-10T13:14:09;10.20;;;9.05;;
15408;SDS011;7803;48.130;13.788;2024-01-10T13:17:11;10.85;;;9.55;;
15408;SDS011;7803;48.130;13.788;2024-01-10T13:20:13;10.45;;;8.82;;
15408;SDS011;7803;48.130;13.788;2024-01-10T13:23:18;9.45;;;8.45;;
15408;SDS011;7803;48.130;13.788;2024-01-10T13:26:22;11.48;;;9.35;;
15408;SDS011;7803;48.130;13.788;2024-01-10T13:29:24;11.40;;;8.80;;
15408;SDS011;7803;48.130;13.788;2024-01-10T13:32:26;9.95;;;8.43;;
15408;SDS011;7803;48.130;13.788;2024-01-10T13:35:42;10.32;;;8.35;;
15408;SDS011;7803;48.130;13.788;2024-01-10T13:38:45;10.27;;;9.15;;
15408;SDS011;7803;48.130;13.788;2024-01-10T13:41:48;10.90;;;8.73;;
15408;SDS011;7803;48.130;13.788;2024-01-10T13:44:52;10.75;;;9.02;;
15408;SDS011;7803;48.130;13.788;2024-01-10T13:47:54;11.73;;;9.15;;
15408;SDS011;7803;48.130;13.788;2024-01-10T13:50:56;10.32;;;8.88;;
15408;SDS011;7803;48.130;13.788;2024-01-10T13:57:32;10.73;;;8.60;;
15408;SDS011;7803;48.130;13.788;2024-01-10T14:00:34;13.55;;;8.65;;
15408;SDS011;7803;48.130;13.788;2024-01-10T14:03:50;10.65;;;8.82;;
15408;SDS011;7803;48.130;13.788;2024-01-10T17:25:45;10.82;;;9.70;;
15408;SDS011;7803;48.130;13.788;2024-01-10T17:28:47;11.15;;;9.50;;
15408;SDS011;7803;48.130;13.788;2024-01-10T17:31:50;11.30;;;10.10;;
15408;SDS011;7803;48.130;13.788;2024-01-10T17:34:52;12.05;;;10.02;;
15408;SDS011;7803;48.130;13.788;2024-01-10T17:37:54;11.23;;;10.02;;
15408;SDS011;7803;48.130;13.788;2024-01-10T17:40:58;16.23;;;10.75;;
15408;SDS011;7803;48.130;13.788;2024-01-10T17:44:00;13.25;;;10.48;;
15408;SDS011;7803;48.130;13.788;2024-01-10T17:47:02;12.88;;;10.00;;
15408;SDS011;7803;48.130;13.788;2024-01-10T17:50:06;12.20;;;10.00;;
15408;SDS011;7803;48.130;13.788;2024-01-10T17:53:08;12.30;;;10.30;;
15408;SDS011;7803;48.130;13.788;2024-01-10T17:56:12;11.43;;;10.02;;
15408;SDS011;7803;48.130;13.788;2024-01-10T17:59:14;12.73;;;10.30;;
15408;SDS011;7803;48.130;13.788;2024-01-10T18:02:16;12.77;;;10.55;;
15408;SDS011;7803;48.130;13.788;2024-01-10T18:05:19;13.25;;;10.80;;
15408;SDS011;7803;48.130;13.788;2024-01-10T18:08:21;11.70;;;10.38;;
15408;SDS011;7803;48.130;13.788;2024-01-10T18:11:24;13.40;;;10.48;;
15408;SDS011;7803;48.130;13.788;2024-01-10T18:14:26;13.52;;;11.27;;
15408;SDS011;7803;48.130;13.788;2024-01-10T18:17:31;12.95;;;11.07;;
15408;SDS011;7803;48.130;13.788;2024-01-10T18:20:33;12.65;;;10.75;;
15408;SDS011;7803;48.130;13.788;2024-01-10T18:23:37;13.27;;;11.00;;
15408;SDS011;7803;48.130;13.788;2024-01-10T18:26:54;11.48;;;10.27;;
15408;SDS011;7803;48.130;13.788;2024-01-10T18:29:56;13.90;;;10.90;;
15408;SDS011;7803;48.130;13.788;2024-01-10T18:33:14;12.35;;;11.02;;
15408;SDS011;7803;48.130;13.788;2024-01-10T18:36:16;13.45;;;11.02;;
15408;SDS011;7803;48.130;13.788;2024-01-10T18:39:19;13.20;;;11.45;;
15408;SDS011;7803;48.130;13.788;2024-01-10T18:46:10;13.32;;;11.63;;
15408;SDS011;7803;48.130;13.788;2024-01-10T18:49:12;12.68;;;11.30;;
15408;SDS011;7803;48.130;13.788;2024-01-10T18:52:28;15.57;;;12.18;;
15408;SDS011;7803;48.130;13.788;2024-01-10T18:55:30;13.32;;;11.68;;
15408;SDS011;7803;48.130;13.788;2024-01-10T18:58:32;14.05;;;12.00;;
15408;SDS011;7803;48.130;13.788;2024-01-10T19:01:35;15.02;;;11.95;;
15408;SDS011;7803;48.130;13.788;2024-01-10T19:04:37;13.82;;;11.75;;
15408;SDS011;7803;48.130;13.788;2024-01-10T19:07:40;13.98;;;11.95;;
15408;SDS011;7803;48.130;13.788;2024-01-10T19:10:55;13.75;;;11.93;;
15408;SDS011;7803;48.130;13.788;2024-01-10T19:13:58;13.63;;;12.23;;
15408;SDS011;7803;48.130;13.788;2024-01-10T19:17:01;13.02;;;11.73;;
15408;SDS011;7803;48.130;13.788;2024-01-10T19:20:04;13.27;;;11.88;;
15408;SDS011;7803;48.130;13.788;2024-01-10T19:23:07;13.80;;;12.20;;
15408;SDS011;7803;48.130;13.788;2024-01-10T19:26:23;13.65;;;12.13;;
15408;SDS011;7803;48.130;13.788;2024-01-10T19:29:26;13.77;;;12.20;;
15408;SDS011;7803;48.130;13.788;2024-01-10T19:32:38;14.13;;;11.90;;
15408;SDS011;7803;48.130;13.788;2024-01-10T19:35:40;13.55;;;12.02;;
15408;SDS011;7803;48.130;13.788;2024-01-10T19:38:43;14.35;;;12.35;;
15408;SDS011;7803;48.130;13.788;2024-01-10T19:41:45;13.30;;;11.88;;
15408;SDS011;7803;48.130;13.788;2024-01-10T19:44:50;14.90;;;12.38;;
15408;SDS011;7803;48.130;13.788;2024-01-10T19:47:53;14.18;;;11.70;;
15408;SDS011;7803;48.130;13.788;2024-01-10T19:50:55;14.60;;;12.10;;
15408;SDS011;7803;48.130;13.788;2024-01-10T19:53:57;14.18;;;12.52;;
15408;SDS011;7803;48.130;13.788;2024-01-10T19:56:59;13.82;;;12.10;;
15408;SDS011;7803;48.130;13.788;2024-01-10T20:00:02;13.52;;;12.13;;
15408;SDS011;7803;48.130;13.788;2024-01-10T20:03:06;13.23;;;11.68;;
15408;SDS011;7803;48.130;13.788;2024-01-10T20:06:08;13.68;;;12.23;;
15408;SDS011;7803;48.130;13.788;2024-01-10T20:09:10;14.05;;;11.90;;
15408;SDS011;7803;48.130;13.788;2024-01-10T20:12:15;13.13;;;11.75;;
15408;SDS011;7803;48.130;13.788;2024-01-10T20:15:17;13.82;;;12.25;;
15408;SDS011;7803;48.130;13.788;2024-01-10T20:18:21;13.45;;;11.68;;
15408;SDS011;7803;48.130;13.788;2024-01-10T20:21:23;13.70;;;12.15;;
15408;SDS011;7803;48.130;13.788;2024-01-10T20:24:26;13.18;;;11.75;;
15408;SDS011;7803;48.130;13.788;2024-01-10T20:27:28;13.30;;;11.90;;
15408;SDS011;7803;48.130;13.788;2024-01-10T20:30:30;13.75;;;11.77;;
15408;SDS011;7803;48.130;13.788;2024-01-10T20:33:34;13.15;;;11.75;;
15408;SDS011;7803;48.130;13.788;2024-01-10T20:36:38;14.52;;;12.23;;
15408;SDS011;7803;48.130;13.788;2024-01-10T20:39:54;13.15;;;11.68;;
15408;SDS011;7803;48.130;13.788;2024-01-10T20:42:56;14.55;;;12.20;;
15408;SDS011;7803;48.130;13.788;2024-01-10T20:45:58;13.07;;;11.73;;
15408;SDS011;7803;48.130;13.788;2024-01-10T20:49:15;13.52;;;12.00;;
15408;SDS011;7803;48.130;13.788;2024-01-10T20:52:17;13.75;;;11.90;;
15408;SDS011;7803;48.130;13.788;2024-01-10T20:55:34;14.25;;;12.38;;
15408;SDS011;7803;48.130;13.788;2024-01-10T20:58:36;13.07;;;11.73;;
15408;SDS011;7803;48.130;13.788;2024-01-10T21:01:38;13.75;;;11.82;;
15408;SDS011;7803;48.130;13.788;2024-01-10T21:04:42;13.85;;;12.02;;
15408;SDS011;7803;48.130;13.788;2024-01-10T21:07:44;13.93;;;12.38;;
15408;SDS011;7803;48.130;13.788;2024-01-10T21:10:47;13.55;;;11.60;;
15408;SDS011;7803;48.130;13.788;2024-01-10T21:13:48;13.48;;;12.07;;
15408;SDS011;7803;48.130;13.788;2024-01-10T21:17:04;13.77;;;11.65;;
15408;SDS011;7803;48.130;13.788;2024-01-10T21:20:11;13.02;;;11.70;;
15408;SDS011;7803;48.130;13.788;2024-01-10T21:23:13;14.35;;;12.15;;
15408;SDS011;7803;48.130;13.788;2024-01-10T21:26:15;13.27;;;11.23;;
15408;SDS011;7803;48.130;13.788;2024-01-10T21:29:19;12.80;;;11.43;;
15408;SDS011;7803;48.130;13.788;2024-01-10T21:32:36;13.18;;;11.55;;
15408;SDS011;7803;48.130;13.788;2024-01-10T21:35:39;12.45;;;11.15;;
15408;SDS011;7803;48.130;13.788;2024-01-10T21:38:41;12.60;;;11.30;;
15408;SDS011;7803;48.130;13.788;2024-01-10T21:41:44;12.88;;;11.13;;
15408;SDS011;7803;48.130;13.788;2024-01-10T21:44:47;12.63;;;11.15;;
15408;SDS011;7803;48.130;13.788;2024-01-10T21:48:03;12.80;;;11.45;;
15408;SDS011;7803;48.130;13.788;2024-01-10T21:51:20;12.82;;;11.40;;
15408;SDS011;7803;48.130;13.788;2024-01-10T21:54:26;14.25;;;11.63;;
15408;SDS011;7803;48.130;13.788;2024-01-10T21:57:32;12.73;;;11.30;;
15408;SDS011;7803;48.130;13.788;2024-01-10T22:00:35;12.77;;;11.20;;
15408;SDS011;7803;48.130;13.788;2024-01-10T22:03:51;12.88;;;11.57;;
15408;SDS011;7803;48.130;13.788;2024-01-10T22:07:08;12.07;;;10.80;;
15408;SDS011;7803;48.130;13.788;2024-01-10T22:10:10;12.85;;;11.23;;
15408;SDS011;7803;48.130;13.788;2024-01-10T22:13:14;13.52;;;11.77;;
15408;SDS011;7803;48.130;13.788;2024-01-10T22:16:30;13.88;;;11.88;;
15408;SDS011;7803;48.130;13.788;2024-01-10T22:19:47;12.82;;;11.50;;
15408;SDS011;7803;48.130;13.788;2024-01-10T22:23:04;13.40;;;11.07;;
15408;SDS011;7803;48.130;13.788;2024-01-10T22:26:06;13.85;;;11.45;;
15408;SDS011;7803;48.130;13.788;2024-01-10T22:29:08;13.30;;;11.75;;
15408;SDS011;7803;48.130;13.788;2024-01-10T22:32:12;13.07;;;11.77;;
15408;SDS011;7803;48.130;13.788;2024-01-10T22:35:14;14.02;;;12.13;;
15408;SDS011;7803;48.130;13.788;2024-01-10T22:38:31;13.27;;;11.88;;
15408;SDS011;7803;48.130;13.788;2024-01-10T22:41:34;13.60;;;11.90;;
15408;SDS011;7803;48.130;13.788;2024-01-10T22:44:50;14.45;;;12.63;;
15408;SDS011;7803;48.130;13.788;2024-01-10T22:48:07;14.35;;;12.85;;
15408;SDS011;7803;48.130;13.788;2024-01-10T22:51:14;14.98;;;12.88;;
15408;SDS011;7803;48.130;13.788;2024-01-10T22:58:17;15.50;;;13.63;;
15408;SDS011;7803;48.130;13.788;2024-01-10T23:01:19;14.43;;;12.90;;
15408;SDS011;7803;48.130;13.788;2024-01-10T23:04:31;14.50;;;13.00;;
15408;SDS011;7803;48.130;13.788;2024-01-10T23:07:47;15.18;;;13.57;;
15408;SDS011;7803;48.130;13.788;2024-01-10T23:11:04;14.40;;;12.82;;
15408;SDS011;7803;48.130;13.788;2024-01-10T23:17:56;14.50;;;13.00;;
15408;SDS011;7803;48.130;13.788;2024-01-10T23:20:59;15.00;;;13.50;;
15408;SDS011;7803;48.130;13.788;2024-01-10T23:24:29;15.32;;;13.75;;
15408;SDS011;7803;48.130;13.788;2024-01-10T23:27:31;15.38;;;13.77;;
15408;SDS011;7803;48.130;13.788;2024-01-10T23:30:33;15.60;;;13.80;;
15408;SDS011;7803;48.130;13.788;2024-01-10T23:33:35;15.38;;;13.80;;
15408;SDS011;7803;48.130;13.788;2024-01-10T23:36:37;15.30;;;13.70;;
15408;SDS011;7803;48.130;13.788;2024-01-10T23:39:40;15.82;;;13.73;;
15408;SDS011;7803;48.130;13.788;2024-01-10T23:42:42;15.15;;;13.52;;
15408;SDS011;7803;48.130;13.788;2024-01-10T23:45:44;16.90;;;14.68;;
15408;SDS011;7803;48.130;13.788;2024-01-10T23:48:46;15.68;;;13.98;;
15408;SDS011;7803;48.130;13.788;2024-01-10T23:51:48;14.85;;;13.35;;
15408;SDS011;7803;48.130;13.788;2024-01-10T23:54:51;15.75;;;14.15;;
15408;SDS011;7803;48.130;13.788;2024-01-10T23:57:53;15.40;;;13.80;;
